createdAt,value
2022-08-30T00:00:31.749Z,0.00
2022-08-30T00:01:31.768Z,0.00
2022-08-30T00:02:31.896Z,0.00
2022-08-30T00:03:31.896Z,0.00
2022-08-30T00:04:31.824Z,0.00
2022-08-30T00:05:31.843Z,0.00
2022-08-30T00:06:31.865Z,0.00
2022-08-30T00:07:31.883Z,0.00
2022-08-30T00:08:31.901Z,0.00
2022-08-30T00:09:31.919Z,0.00
2022-08-30T00:10:31.939Z,0.00
2022-08-30T00:11:31.962Z,0.00
2022-08-30T00:12:31.982Z,0.00
2022-08-30T00:13:31.998Z,0.00
2022-08-30T00:14:32.017Z,0.00
2022-08-30T00:15:32.067Z,0.00
2022-08-30T00:16:32.054Z,0.00
2022-08-30T00:17:32.075Z,0.00
2022-08-30T00:18:32.092Z,0.00
2022-08-30T00:19:32.112Z,0.00
2022-08-30T00:20:32.130Z,0.00
2022-08-30T00:21:32.147Z,0.00
2022-08-30T00:22:32.168Z,0.00
2022-08-30T00:23:32.188Z,0.00
2022-08-30T00:24:32.207Z,0.00
2022-08-30T00:25:32.229Z,0.00
2022-08-30T00:26:32.245Z,0.00
2022-08-30T00:27:32.264Z,0.00
2022-08-30T00:28:32.294Z,0.00
2022-08-30T00:29:32.317Z,0.00
2022-08-30T00:30:32.321Z,0.00
2022-08-30T00:31:32.372Z,0.00
2022-08-30T00:32:32.368Z,0.00
2022-08-30T00:33:32.383Z,0.00
2022-08-30T00:34:32.396Z,0.00
2022-08-30T00:35:32.414Z,0.00
2022-08-30T00:36:32.434Z,0.00
2022-08-30T00:37:32.453Z,0.00
2022-08-30T00:38:32.473Z,0.00
2022-08-30T00:39:32.493Z,0.00
2022-08-30T00:40:32.574Z,0.00
2022-08-30T00:41:32.535Z,0.00
2022-08-30T00:42:32.548Z,0.00
2022-08-30T00:43:32.599Z,0.00
2022-08-30T00:44:32.585Z,0.00
2022-08-30T00:45:32.605Z,0.00
2022-08-30T00:46:32.694Z,0.00
2022-08-30T00:47:32.644Z,0.00
2022-08-30T00:48:32.662Z,0.00
2022-08-30T00:49:32.677Z,0.00
2022-08-30T00:50:32.700Z,0.00
2022-08-30T00:51:32.718Z,0.00
2022-08-30T00:52:32.740Z,0.00
2022-08-30T00:53:32.757Z,0.00
2022-08-30T00:54:32.775Z,0.00
2022-08-30T00:55:32.793Z,0.00
2022-08-30T00:56:32.813Z,0.00
2022-08-30T00:57:32.831Z,0.00
2022-08-30T00:58:32.852Z,0.00
2022-08-30T00:59:32.868Z,0.00
2022-08-30T01:00:32.892Z,0.00
2022-08-30T01:01:34.118Z,0.00
2022-08-30T01:02:33.002Z,0.00
2022-08-30T01:03:32.943Z,0.00
2022-08-30T01:04:32.964Z,0.00
2022-08-30T01:05:32.980Z,0.00
2022-08-30T01:06:33.000Z,0.00
2022-08-30T01:07:33.018Z,0.00
2022-08-30T01:08:33.038Z,0.00
2022-08-30T01:09:33.056Z,0.00
2022-08-30T01:10:33.079Z,0.00
2022-08-30T01:11:33.094Z,0.00
2022-08-30T01:12:33.113Z,0.00
2022-08-30T01:13:33.130Z,0.00
2022-08-30T01:14:33.150Z,0.00
2022-08-30T01:15:33.238Z,0.00
2022-08-30T01:16:33.188Z,0.00
2022-08-30T01:17:33.206Z,0.00
2022-08-30T01:18:33.228Z,0.00
2022-08-30T01:19:33.247Z,0.00
2022-08-30T01:20:33.263Z,0.00
2022-08-30T01:21:33.280Z,0.00
2022-08-30T01:22:33.299Z,0.00
2022-08-30T01:23:33.321Z,0.00
2022-08-30T01:24:33.338Z,0.00
2022-08-30T01:25:33.355Z,0.00
2022-08-30T01:26:33.374Z,0.00
2022-08-30T01:27:33.396Z,0.00
2022-08-30T01:28:33.413Z,0.00
2022-08-30T01:29:33.430Z,0.00
2022-08-30T01:30:33.469Z,0.00
2022-08-30T01:31:33.471Z,0.00
2022-08-30T01:32:33.485Z,0.00
2022-08-30T01:33:33.504Z,0.00
2022-08-30T01:34:33.523Z,0.00
2022-08-30T01:35:33.543Z,0.00
2022-08-30T01:36:33.560Z,0.00
2022-08-30T01:37:33.581Z,0.00
2022-08-30T01:38:33.599Z,0.00
2022-08-30T01:39:33.620Z,0.00
2022-08-30T01:40:33.682Z,0.00
2022-08-30T01:41:33.654Z,0.00
2022-08-30T01:42:33.674Z,0.00
2022-08-30T01:43:33.692Z,0.00
2022-08-30T01:44:33.711Z,0.00
2022-08-30T01:45:33.729Z,0.00
2022-08-30T01:46:33.747Z,0.00
2022-08-30T01:47:33.768Z,0.00
2022-08-30T01:48:33.784Z,0.00
2022-08-30T01:49:33.805Z,0.00
2022-08-30T01:50:33.825Z,0.00
2022-08-30T01:51:33.842Z,0.00
2022-08-30T01:52:33.859Z,0.00
2022-08-30T01:53:33.882Z,0.00
2022-08-30T01:54:38.209Z,0.00
2022-08-30T01:55:33.917Z,0.00
2022-08-30T01:56:33.935Z,0.00
2022-08-30T01:57:33.954Z,0.00
2022-08-30T01:58:33.976Z,0.00
2022-08-30T01:59:33.992Z,0.00
2022-08-30T02:00:34.008Z,0.00
2022-08-30T02:01:34.093Z,0.00
2022-08-30T02:02:34.048Z,0.00
2022-08-30T02:03:34.066Z,0.00
2022-08-30T02:04:34.084Z,0.00
2022-08-30T02:05:34.104Z,0.00
2022-08-30T02:06:34.123Z,0.00
2022-08-30T02:07:34.142Z,0.00
2022-08-30T02:08:34.523Z,0.00
2022-08-30T02:09:34.176Z,0.00
2022-08-30T02:10:34.198Z,0.00
2022-08-30T02:11:34.215Z,0.00
2022-08-30T02:12:34.238Z,0.00
2022-08-30T02:13:34.257Z,0.00
2022-08-30T02:14:34.271Z,0.00
2022-08-30T02:15:34.307Z,0.00
2022-08-30T02:16:34.401Z,0.00
2022-08-30T02:17:34.327Z,0.00
2022-08-30T02:18:34.346Z,0.00
2022-08-30T02:19:34.366Z,0.00
2022-08-30T02:20:34.384Z,0.00
2022-08-30T02:21:34.402Z,0.00
2022-08-30T02:22:34.421Z,0.00
2022-08-30T02:23:34.439Z,0.00
2022-08-30T02:24:34.454Z,0.00
2022-08-30T02:25:34.475Z,0.00
2022-08-30T02:26:34.499Z,0.00
2022-08-30T02:27:34.515Z,0.00
2022-08-30T02:28:34.529Z,0.00
2022-08-30T02:29:34.549Z,0.00
2022-08-30T02:30:34.637Z,0.00
2022-08-30T02:31:34.589Z,0.00
2022-08-30T02:32:34.715Z,0.00
2022-08-30T02:33:34.644Z,0.00
2022-08-30T02:34:34.658Z,0.00
2022-08-30T02:35:34.683Z,0.00
2022-08-30T02:36:34.722Z,0.00
2022-08-30T02:37:34.719Z,0.00
2022-08-30T02:38:34.720Z,0.00
2022-08-30T02:39:34.734Z,0.00
2022-08-30T02:40:34.869Z,0.00
2022-08-30T02:41:34.772Z,0.00
2022-08-30T02:42:34.789Z,0.00
2022-08-30T02:43:34.809Z,0.00
2022-08-30T02:44:34.829Z,0.00
2022-08-30T02:45:34.937Z,0.00
2022-08-30T02:46:34.969Z,0.00
2022-08-30T02:47:34.886Z,0.00
2022-08-30T02:48:34.903Z,0.00
2022-08-30T02:49:34.918Z,0.00
2022-08-30T02:50:34.937Z,0.00
2022-08-30T02:51:34.955Z,0.00
2022-08-30T02:52:34.973Z,0.00
2022-08-30T02:53:34.992Z,0.00
2022-08-30T02:54:35.013Z,0.00
2022-08-30T02:55:35.030Z,0.00
2022-08-30T02:56:35.048Z,0.00
2022-08-30T02:57:35.067Z,0.00
2022-08-30T02:58:35.084Z,0.00
2022-08-30T02:59:35.102Z,0.00
2022-08-30T03:00:35.121Z,0.00
2022-08-30T03:01:35.173Z,0.00
2022-08-30T03:02:35.160Z,0.00
2022-08-30T03:03:35.231Z,0.00
2022-08-30T03:04:35.195Z,0.00
2022-08-30T03:05:35.215Z,0.00
2022-08-30T03:06:35.231Z,0.00
2022-08-30T03:07:35.250Z,0.00
2022-08-30T03:08:35.269Z,0.00
2022-08-30T03:09:35.288Z,0.00
2022-08-30T03:10:35.306Z,0.00
2022-08-30T03:11:35.324Z,0.00
2022-08-30T03:12:35.341Z,0.00
2022-08-30T03:13:35.360Z,0.00
2022-08-30T03:14:35.380Z,0.00
2022-08-30T03:15:35.399Z,0.00
2022-08-30T03:16:35.440Z,0.00
2022-08-30T03:17:35.434Z,0.00
2022-08-30T03:18:35.455Z,0.00
2022-08-30T03:19:35.481Z,0.00
2022-08-30T03:20:35.490Z,0.00
2022-08-30T03:21:35.510Z,0.00
2022-08-30T03:22:35.528Z,0.00
2022-08-30T03:23:35.551Z,0.00
2022-08-30T03:24:35.565Z,0.00
2022-08-30T03:25:35.583Z,0.00
2022-08-30T03:26:35.604Z,0.00
2022-08-30T03:27:35.622Z,0.00
2022-08-30T03:28:35.637Z,0.00
2022-08-30T03:29:35.658Z,0.00
2022-08-30T03:30:35.679Z,0.00
2022-08-30T03:31:37.778Z,0.00
2022-08-30T03:32:35.715Z,0.00
2022-08-30T03:33:35.733Z,0.00
2022-08-30T03:34:35.754Z,0.00
2022-08-30T03:35:35.771Z,0.00
2022-08-30T03:36:35.788Z,0.00
2022-08-30T03:37:35.808Z,4.00
2022-08-30T03:38:35.826Z,4.00
2022-08-30T03:39:35.844Z,4.00
2022-08-30T03:40:35.934Z,0.00
2022-08-30T03:41:35.882Z,4.00
2022-08-30T03:42:35.908Z,4.00
2022-08-30T03:43:35.919Z,0.00
2022-08-30T03:44:35.939Z,4.00
2022-08-30T03:45:36.006Z,4.00
2022-08-30T03:46:37.473Z,8.00
2022-08-30T03:47:35.995Z,8.00
2022-08-30T03:48:36.013Z,8.00
2022-08-30T03:49:36.031Z,12.00
2022-08-30T03:50:36.050Z,12.00
2022-08-30T03:51:36.072Z,12.00
2022-08-30T03:52:36.087Z,16.00
2022-08-30T03:53:36.109Z,20.00
2022-08-30T03:54:36.126Z,24.00
2022-08-30T03:55:36.144Z,24.00
2022-08-30T03:56:36.170Z,28.00
2022-08-30T03:57:36.705Z,36.00
2022-08-30T03:58:36.199Z,40.00
2022-08-30T03:59:36.221Z,48.00
2022-08-30T04:00:36.334Z,52.00
2022-08-30T04:01:36.256Z,60.00
2022-08-30T04:02:36.340Z,68.00
2022-08-30T04:03:36.294Z,80.00
2022-08-30T04:04:36.311Z,92.00
2022-08-30T04:05:36.328Z,104.00
2022-08-30T04:06:36.348Z,116.00
2022-08-30T04:07:36.369Z,128.00
2022-08-30T04:08:36.386Z,140.00
2022-08-30T04:09:36.404Z,156.00
2022-08-30T04:10:36.423Z,172.00
2022-08-30T04:11:36.445Z,192.00
2022-08-30T04:12:38.369Z,212.00
2022-08-30T04:13:36.482Z,232.00
2022-08-30T04:14:36.500Z,252.00
2022-08-30T04:15:36.519Z,272.00
2022-08-30T04:16:36.579Z,296.00
2022-08-30T04:17:36.554Z,324.00
2022-08-30T04:18:36.574Z,348.00
2022-08-30T04:19:36.594Z,372.00
2022-08-30T04:20:36.610Z,400.00
2022-08-30T04:21:42.802Z,432.00
2022-08-30T04:22:36.650Z,476.00
2022-08-30T04:23:36.668Z,516.00
2022-08-30T04:24:36.687Z,564.00
2022-08-30T04:25:36.708Z,616.00
2022-08-30T04:26:36.723Z,656.00
2022-08-30T04:27:36.743Z,676.00
2022-08-30T04:28:36.761Z,688.00
2022-08-30T04:29:36.780Z,696.00
2022-08-30T04:30:36.801Z,724.00
2022-08-30T04:31:36.852Z,784.00
2022-08-30T04:32:37.383Z,848.00
2022-08-30T04:33:36.855Z,912.00
2022-08-30T04:34:36.879Z,956.00
2022-08-30T04:35:36.897Z,996.00
2022-08-30T04:36:36.908Z,1020.00
2022-08-30T04:37:36.928Z,1052.00
2022-08-30T04:38:36.947Z,1104.00
2022-08-30T04:39:36.967Z,1152.00
2022-08-30T04:40:37.060Z,1184.00
2022-08-30T04:41:37.005Z,1212.00
2022-08-30T04:42:37.022Z,1244.00
2022-08-30T04:43:37.042Z,1272.00
2022-08-30T04:44:37.060Z,1304.00
2022-08-30T04:45:37.131Z,1348.00
2022-08-30T04:46:37.098Z,1388.00
2022-08-30T04:47:37.116Z,1424.00
2022-08-30T04:48:37.134Z,1468.00
2022-08-30T04:49:37.153Z,1528.00
2022-08-30T04:50:37.171Z,1584.00
2022-08-30T04:51:37.194Z,1632.00
2022-08-30T04:52:37.213Z,1660.00
2022-08-30T04:53:37.230Z,1712.00
2022-08-30T04:54:37.246Z,1820.00
2022-08-30T04:55:37.268Z,1788.00
2022-08-30T04:56:37.284Z,1824.00
2022-08-30T04:57:37.304Z,2004.00
2022-08-30T04:58:37.324Z,2460.00
2022-08-30T04:59:37.341Z,2008.00
2022-08-30T05:00:37.450Z,2380.00
2022-08-30T05:01:45.338Z,2856.00
2022-08-30T05:02:37.468Z,2204.00
2022-08-30T05:03:37.415Z,1984.00
2022-08-30T05:04:37.436Z,2784.00
2022-08-30T05:05:37.453Z,2844.00
2022-08-30T05:06:37.471Z,2868.00
2022-08-30T05:07:37.491Z,2824.00
2022-08-30T05:08:37.510Z,3276.00
2022-08-30T05:09:37.530Z,3548.00
2022-08-30T05:10:37.549Z,2932.00
2022-08-30T05:11:37.566Z,2976.00
2022-08-30T05:12:37.583Z,2792.00
2022-08-30T05:13:37.602Z,2944.00
2022-08-30T05:14:37.623Z,3424.00
2022-08-30T05:15:37.643Z,3468.00
2022-08-30T05:16:37.710Z,3424.00
2022-08-30T05:17:37.678Z,2716.00
2022-08-30T05:18:37.703Z,2692.00
2022-08-30T05:19:37.720Z,2972.00
2022-08-30T05:20:37.736Z,3184.00
2022-08-30T05:21:37.757Z,2868.00
2022-08-30T05:22:37.781Z,3080.00
2022-08-30T05:23:37.794Z,3188.00
2022-08-30T05:24:37.813Z,3056.00
2022-08-30T05:25:37.834Z,2872.00
2022-08-30T05:26:37.920Z,2892.00
2022-08-30T05:27:37.873Z,3096.00
2022-08-30T05:28:37.888Z,3572.00
2022-08-30T05:29:37.911Z,3560.00
2022-08-30T05:30:37.932Z,4040.00
2022-08-30T05:31:38.041Z,3952.00
2022-08-30T05:32:37.966Z,3736.00
2022-08-30T05:33:38.931Z,3412.00
2022-08-30T05:34:38.007Z,3672.00
2022-08-30T05:35:38.027Z,4368.00
2022-08-30T05:36:38.044Z,5592.00
2022-08-30T05:37:38.065Z,4496.00
2022-08-30T05:38:38.084Z,3788.00
2022-08-30T05:39:50.935Z,3820.00
2022-08-30T05:40:38.181Z,3708.00
2022-08-30T05:41:38.141Z,3584.00
2022-08-30T05:42:38.168Z,3580.00
2022-08-30T05:43:38.183Z,3584.00
2022-08-30T05:44:38.200Z,3644.00
2022-08-30T05:45:38.219Z,3812.00
2022-08-30T05:46:38.247Z,3884.00
2022-08-30T05:47:38.257Z,3872.00
2022-08-30T05:48:38.275Z,3784.00
2022-08-30T05:49:38.292Z,3816.00
2022-08-30T05:50:39.889Z,3832.00
2022-08-30T05:51:40.244Z,4064.00
2022-08-30T05:52:38.351Z,4112.00
2022-08-30T05:53:38.369Z,4080.00
2022-08-30T05:54:38.393Z,4436.00
2022-08-30T05:55:38.410Z,4840.00
2022-08-30T05:56:38.433Z,5284.00
2022-08-30T05:57:38.448Z,5336.00
2022-08-30T05:58:38.467Z,5736.00
2022-08-30T05:59:38.486Z,5988.00
2022-08-30T06:00:38.514Z,6156.00
2022-08-30T06:01:38.575Z,6396.00
2022-08-30T06:02:38.581Z,6732.00
2022-08-30T06:03:38.566Z,7276.00
2022-08-30T06:04:38.583Z,8396.00
2022-08-30T06:05:38.630Z,8400.00
2022-08-30T06:06:38.625Z,7732.00
2022-08-30T06:07:38.644Z,7320.00
2022-08-30T06:08:38.664Z,6916.00
2022-08-30T06:09:38.684Z,7484.00
2022-08-30T06:10:38.702Z,8164.00
2022-08-30T06:11:38.725Z,7696.00
2022-08-30T06:12:38.741Z,6924.00
2022-08-30T06:13:38.762Z,6192.00
2022-08-30T06:14:38.781Z,5948.00
2022-08-30T06:15:38.802Z,6424.00
2022-08-30T06:16:38.824Z,7144.00
2022-08-30T06:17:38.849Z,7540.00
2022-08-30T06:18:38.862Z,7220.00
2022-08-30T06:19:38.881Z,6740.00
2022-08-30T06:20:38.903Z,6524.00
2022-08-30T06:21:38.922Z,5856.00
2022-08-30T06:22:38.940Z,5964.00
2022-08-30T06:23:38.961Z,6140.00
2022-08-30T06:24:56.483Z,6528.00
2022-08-30T06:25:41.360Z,6820.00
2022-08-30T06:26:39.026Z,6976.00
2022-08-30T06:27:39.042Z,6892.00
2022-08-30T06:28:39.061Z,7136.00
2022-08-30T06:29:39.081Z,6724.00
2022-08-30T06:30:39.104Z,7032.00
2022-08-30T06:31:39.167Z,7592.00
2022-08-30T06:32:39.141Z,8184.00
2022-08-30T06:33:39.162Z,9036.00
2022-08-30T06:34:39.186Z,9800.00
2022-08-30T06:35:56.679Z,10036.00
2022-08-30T06:36:39.227Z,10308.00
2022-08-30T06:37:39.245Z,10300.00
2022-08-30T06:38:39.263Z,10704.00
2022-08-30T06:39:39.285Z,10484.00
2022-08-30T06:40:39.393Z,10416.00
2022-08-30T06:41:39.325Z,10792.00
2022-08-30T06:42:39.346Z,10732.00
2022-08-30T06:43:39.366Z,9432.00
2022-08-30T06:44:39.388Z,9340.00
2022-08-30T06:45:39.410Z,9648.00
2022-08-30T06:46:39.465Z,10036.00
2022-08-30T06:47:39.450Z,9156.00
2022-08-30T06:48:39.474Z,9096.00
2022-08-30T06:49:39.491Z,9676.00
2022-08-30T06:50:39.515Z,17536.00
2022-08-30T06:51:39.799Z,15104.00
2022-08-30T06:52:39.552Z,19296.00
2022-08-30T06:53:39.574Z,31648.00
2022-08-30T06:54:39.595Z,9552.00
2022-08-30T06:55:39.717Z,11320.00
2022-08-30T06:56:40.219Z,10752.00
2022-08-30T06:57:39.661Z,15972.00
2022-08-30T06:58:39.680Z,27360.00
2022-08-30T06:59:39.700Z,15580.00
2022-08-30T07:00:39.725Z,12756.00
2022-08-30T07:01:39.815Z,12136.00
2022-08-30T07:02:39.850Z,13000.00
2022-08-30T07:03:39.790Z,14192.00
2022-08-30T07:04:39.810Z,16232.00
2022-08-30T07:05:39.832Z,13380.00
2022-08-30T07:06:39.853Z,14212.00
2022-08-30T07:07:39.874Z,14148.00
2022-08-30T07:08:39.899Z,16436.00
2022-08-30T07:09:39.929Z,14004.00
2022-08-30T07:10:39.946Z,26816.00
2022-08-30T07:11:39.963Z,11520.00
2022-08-30T07:12:39.983Z,10960.00
2022-08-30T07:13:40.007Z,11736.00
2022-08-30T07:14:40.040Z,12972.00
2022-08-30T07:15:40.087Z,13820.00
2022-08-30T07:16:40.072Z,16840.00
2022-08-30T07:17:40.103Z,17600.00
2022-08-30T07:18:40.121Z,21312.00
2022-08-30T07:19:40.140Z,22368.00
2022-08-30T07:20:40.868Z,25504.00
2022-08-30T07:21:40.185Z,21120.00
2022-08-30T07:22:40.205Z,22528.00
2022-08-30T07:23:40.230Z,19840.00
2022-08-30T07:24:40.251Z,20192.00
2022-08-30T07:25:40.273Z,20032.00
2022-08-30T07:26:40.304Z,20544.00
2022-08-30T07:27:40.320Z,20768.00
2022-08-30T07:28:40.343Z,21440.00
2022-08-30T07:29:40.366Z,23488.00
2022-08-30T07:30:40.387Z,26496.00
2022-08-30T07:31:40.411Z,42496.00
2022-08-30T07:32:40.438Z,21312.00
2022-08-30T07:33:40.460Z,27648.00
2022-08-30T07:34:40.483Z,32864.00
2022-08-30T07:35:40.507Z,31392.00
2022-08-30T07:36:40.531Z,37824.00
2022-08-30T07:37:40.555Z,22208.00
2022-08-30T07:38:40.578Z,12520.00
2022-08-30T07:39:44.543Z,10884.00
2022-08-30T07:40:40.667Z,11268.00
2022-08-30T07:41:40.647Z,11104.00
2022-08-30T07:42:40.673Z,13112.00
2022-08-30T07:43:40.705Z,18112.00
2022-08-30T07:44:40.722Z,13648.00
2022-08-30T07:45:40.747Z,16340.00
2022-08-30T07:46:40.856Z,42400.00
2022-08-30T07:47:40.795Z,26944.00
2022-08-30T07:48:40.819Z,17184.00
2022-08-30T07:49:40.852Z,16752.00
2022-08-30T07:50:40.867Z,15752.00
2022-08-30T07:51:40.894Z,15280.00
2022-08-30T07:52:41.054Z,16492.00
2022-08-30T07:53:40.940Z,36416.00
2022-08-30T07:54:40.965Z,42272.00
2022-08-30T07:55:40.991Z,44512.00
2022-08-30T07:56:41.014Z,42912.00
2022-08-30T07:57:41.040Z,33760.00
2022-08-30T07:58:41.064Z,22592.00
2022-08-30T07:59:41.091Z,12924.00
2022-08-30T08:00:41.116Z,12420.00
2022-08-30T08:01:41.193Z,12148.00
2022-08-30T08:02:41.268Z,13452.00
2022-08-30T08:03:41.188Z,14336.00
2022-08-30T08:04:41.215Z,14632.00
2022-08-30T08:05:41.238Z,15356.00
2022-08-30T08:06:41.266Z,15860.00
2022-08-30T08:07:41.288Z,15992.00
2022-08-30T08:08:41.315Z,16304.00
2022-08-30T08:09:41.337Z,17760.00
2022-08-30T08:10:41.363Z,19040.00
2022-08-30T08:11:41.415Z,19936.00
2022-08-30T08:12:41.411Z,19872.00
2022-08-30T08:13:53.605Z,19424.00
2022-08-30T08:14:41.461Z,19488.00
2022-08-30T08:15:41.521Z,19968.00
2022-08-30T08:16:41.514Z,20640.00
2022-08-30T08:17:41.535Z,20576.00
2022-08-30T08:18:41.560Z,22016.00
2022-08-30T08:19:41.584Z,21664.00
2022-08-30T08:20:41.609Z,18080.00
2022-08-30T08:21:41.639Z,13544.00
2022-08-30T08:22:41.658Z,9960.00
2022-08-30T08:23:41.684Z,8380.00
2022-08-30T08:24:41.707Z,7908.00
2022-08-30T08:25:41.732Z,7796.00
2022-08-30T08:26:45.270Z,7524.00
2022-08-30T08:27:41.785Z,7428.00
2022-08-30T08:28:41.805Z,7428.00
2022-08-30T08:29:41.830Z,7276.00
2022-08-30T08:30:45.142Z,7196.00
2022-08-30T08:31:41.915Z,7136.00
2022-08-30T08:32:41.919Z,6804.00
2022-08-30T08:33:41.935Z,6632.00
2022-08-30T08:34:41.956Z,6544.00
2022-08-30T08:35:41.980Z,6428.00
2022-08-30T08:36:42.030Z,6384.00
2022-08-30T08:37:42.022Z,6092.00
2022-08-30T08:38:42.054Z,5704.00
2022-08-30T08:39:42.087Z,5636.00
2022-08-30T08:40:42.136Z,5996.00
2022-08-30T08:41:42.118Z,6700.00
2022-08-30T08:42:42.144Z,7304.00
2022-08-30T08:43:42.165Z,8076.00
2022-08-30T08:44:42.219Z,9176.00
2022-08-30T08:45:42.217Z,10080.00
2022-08-30T08:46:45.460Z,10720.00
2022-08-30T08:47:42.263Z,11476.00
2022-08-30T08:48:59.195Z,12404.00
2022-08-30T08:49:42.307Z,13568.00
2022-08-30T08:50:42.330Z,14608.00
2022-08-30T08:51:42.362Z,16360.00
2022-08-30T08:52:42.390Z,17920.00
2022-08-30T08:53:46.535Z,18304.00
2022-08-30T08:54:42.426Z,18464.00
2022-08-30T08:55:42.509Z,18816.00
2022-08-30T08:56:42.485Z,18464.00
2022-08-30T08:57:42.503Z,18016.00
2022-08-30T08:58:42.519Z,18528.00
2022-08-30T08:59:42.542Z,18208.00
2022-08-30T09:00:42.564Z,17280.00
2022-08-30T09:01:42.759Z,16324.00
2022-08-30T09:02:42.613Z,16236.00
2022-08-30T09:03:42.639Z,16560.00
2022-08-30T09:04:42.698Z,16884.00
2022-08-30T09:05:42.684Z,16176.00
2022-08-30T09:06:45.384Z,15524.00
2022-08-30T09:07:42.732Z,14788.00
2022-08-30T09:08:42.755Z,14860.00
2022-08-30T09:09:42.780Z,15760.00
2022-08-30T09:10:51.045Z,17120.00
2022-08-30T09:11:44.326Z,17984.00
2022-08-30T09:12:43.437Z,18432.00
2022-08-30T09:13:42.878Z,18880.00
2022-08-30T09:14:46.009Z,19104.00
2022-08-30T09:15:43.015Z,18848.00
2022-08-30T09:16:42.947Z,18240.00
2022-08-30T09:17:42.972Z,17664.00
2022-08-30T09:18:42.995Z,16992.00
2022-08-30T09:19:43.021Z,16096.00
2022-08-30T09:20:43.045Z,15156.00
2022-08-30T09:21:43.070Z,14928.00
2022-08-30T09:22:43.094Z,15140.00
2022-08-30T09:23:43.115Z,15552.00
2022-08-30T09:24:43.141Z,16288.00
2022-08-30T09:25:43.165Z,16008.00
2022-08-30T09:26:43.192Z,14664.00
2022-08-30T09:27:43.212Z,13304.00
2022-08-30T09:28:43.238Z,11940.00
2022-08-30T09:29:43.263Z,10872.00
2022-08-30T09:30:43.307Z,9980.00
2022-08-30T09:31:43.314Z,9060.00
2022-08-30T09:32:43.335Z,8040.00
2022-08-30T09:33:43.360Z,7088.00
2022-08-30T09:34:43.384Z,6288.00
2022-08-30T09:35:43.409Z,5444.00
2022-08-30T09:36:43.434Z,4792.00
2022-08-30T09:37:43.458Z,4396.00
2022-08-30T09:38:43.481Z,4308.00
2022-08-30T09:39:43.506Z,4520.00
2022-08-30T09:40:43.582Z,4880.00
2022-08-30T09:41:43.556Z,5104.00
2022-08-30T09:42:43.576Z,4864.00
2022-08-30T09:43:43.601Z,4752.00
2022-08-30T09:44:43.625Z,4724.00
2022-08-30T09:45:43.697Z,4872.00
2022-08-30T09:46:43.675Z,5076.00
2022-08-30T09:47:43.697Z,5336.00
2022-08-30T09:48:43.720Z,5664.00
2022-08-30T09:49:43.745Z,6164.00
2022-08-30T09:50:43.780Z,6860.00
2022-08-30T09:51:43.790Z,7780.00
2022-08-30T09:52:43.813Z,8708.00
2022-08-30T09:54:01.101Z,9664.00
2022-08-30T09:54:43.858Z,10476.00
2022-08-30T09:55:43.883Z,11124.00
2022-08-30T09:56:43.904Z,11828.00
2022-08-30T09:57:43.930Z,12492.00
2022-08-30T09:58:43.955Z,13128.00
2022-08-30T09:59:43.978Z,13848.00
2022-08-30T10:00:44.014Z,14604.00
2022-08-30T10:01:44.050Z,15380.00
2022-08-30T10:02:44.043Z,16004.00
2022-08-30T10:03:44.063Z,16332.00
2022-08-30T10:04:44.090Z,16120.00
2022-08-30T10:05:44.111Z,15736.00
2022-08-30T10:06:44.135Z,15520.00
2022-08-30T10:07:44.157Z,15188.00
2022-08-30T10:08:44.181Z,15168.00
2022-08-30T10:09:44.205Z,15520.00
2022-08-30T10:10:45.910Z,16244.00
2022-08-30T10:11:44.253Z,17472.00
2022-08-30T10:12:44.274Z,18752.00
2022-08-30T10:13:44.297Z,19936.00
2022-08-30T10:14:44.320Z,20800.00
2022-08-30T10:15:44.344Z,21312.00
2022-08-30T10:16:44.365Z,21536.00
2022-08-30T10:17:44.390Z,21728.00
2022-08-30T10:18:44.413Z,21696.00
2022-08-30T10:19:44.440Z,21376.00
2022-08-30T10:20:44.462Z,20640.00
2022-08-30T10:21:44.484Z,19872.00
2022-08-30T10:22:44.511Z,19232.00
2022-08-30T10:23:44.537Z,19424.00
2022-08-30T10:24:44.554Z,21184.00
2022-08-30T10:25:44.581Z,22400.00
2022-08-30T10:26:44.605Z,20800.00
2022-08-30T10:27:44.629Z,20416.00
2022-08-30T10:28:44.653Z,20736.00
2022-08-30T10:29:44.676Z,20832.00
2022-08-30T10:30:44.705Z,20800.00
2022-08-30T10:31:44.727Z,20576.00
2022-08-30T10:32:44.750Z,20288.00
2022-08-30T10:33:44.775Z,20064.00
2022-08-30T10:34:44.807Z,20192.00
2022-08-30T10:35:44.824Z,20224.00
2022-08-30T10:36:44.850Z,20032.00
2022-08-30T10:37:44.874Z,20000.00
2022-08-30T10:38:44.900Z,19968.00
2022-08-30T10:39:44.924Z,19904.00
2022-08-30T10:40:45.000Z,19712.00
2022-08-30T10:41:44.973Z,19360.00
2022-08-30T10:42:45.001Z,19232.00
2022-08-30T10:43:45.022Z,19456.00
2022-08-30T10:44:45.048Z,20096.00
2022-08-30T10:45:45.073Z,21248.00
2022-08-30T10:46:45.098Z,22336.00
2022-08-30T10:47:45.122Z,23360.00
2022-08-30T10:48:47.367Z,24832.00
2022-08-30T10:49:45.181Z,26528.00
2022-08-30T10:50:45.197Z,27616.00
2022-08-30T10:51:45.225Z,40160.00
2022-08-30T10:52:45.911Z,57792.00
2022-08-30T10:53:45.275Z,55200.00
2022-08-30T10:54:45.298Z,69600.00
2022-08-30T10:55:49.832Z,46368.00
2022-08-30T10:56:45.350Z,40160.00
2022-08-30T10:57:45.376Z,57952.00
2022-08-30T10:58:45.404Z,32640.00
2022-08-30T10:59:45.431Z,27744.00
2022-08-30T11:00:45.517Z,27520.00
2022-08-30T11:01:46.620Z,38368.00
2022-08-30T11:02:45.512Z,26848.00
2022-08-30T11:03:45.541Z,29920.00
2022-08-30T11:04:45.751Z,44384.00
2022-08-30T11:05:45.596Z,37792.00
2022-08-30T11:06:45.624Z,36640.00
2022-08-30T11:07:45.654Z,55840.00
2022-08-30T11:08:45.682Z,60384.00
2022-08-30T11:09:45.709Z,35520.00
2022-08-30T11:10:49.701Z,42080.00
2022-08-30T11:11:45.768Z,50080.00
2022-08-30T11:12:45.796Z,58784.00
2022-08-30T11:13:45.826Z,36800.00
2022-08-30T11:14:45.854Z,42240.00
2022-08-30T11:15:45.897Z,58176.00
2022-08-30T11:16:45.912Z,47232.00
2022-08-30T11:17:45.949Z,39520.00
2022-08-30T11:18:45.981Z,36640.00
2022-08-30T11:19:46.002Z,34720.00
2022-08-30T11:20:46.033Z,35072.00
2022-08-30T11:21:46.062Z,50080.00
2022-08-30T11:22:46.093Z,41504.00
2022-08-30T11:23:46.122Z,37248.00
2022-08-30T11:24:46.155Z,33472.00
2022-08-30T11:25:46.182Z,32672.00
2022-08-30T11:26:46.213Z,35040.00
2022-08-30T11:27:46.244Z,34304.00
2022-08-30T11:28:46.277Z,41056.00
2022-08-30T11:29:46.304Z,48576.00
2022-08-30T11:30:46.335Z,41760.00
2022-08-30T11:31:47.453Z,40544.00
2022-08-30T11:32:46.395Z,38528.00
2022-08-30T11:33:46.501Z,42656.00
2022-08-30T11:34:46.468Z,39328.00
2022-08-30T11:35:48.688Z,38528.00
2022-08-30T11:36:46.525Z,37152.00
2022-08-30T11:37:46.552Z,39904.00
2022-08-30T11:38:46.585Z,37760.00
2022-08-30T11:39:46.618Z,36480.00
2022-08-30T11:40:46.644Z,34816.00
2022-08-30T11:41:47.986Z,40576.00
2022-08-30T11:42:46.824Z,34112.00
2022-08-30T11:43:46.738Z,32960.00
2022-08-30T11:44:46.772Z,27584.00
2022-08-30T11:45:46.861Z,26464.00
2022-08-30T11:46:46.833Z,39552.00
2022-08-30T11:47:46.869Z,28224.00
2022-08-30T11:48:53.552Z,27200.00
2022-08-30T11:49:46.924Z,31104.00
2022-08-30T11:50:48.443Z,24416.00
2022-08-30T11:51:58.145Z,24736.00
2022-08-30T11:52:48.737Z,24416.00
2022-08-30T11:53:47.046Z,26592.00
2022-08-30T11:54:50.981Z,29344.00
2022-08-30T11:55:47.107Z,41952.00
2022-08-30T11:56:47.135Z,36320.00
2022-08-30T11:57:47.167Z,42656.00
2022-08-30T11:58:47.199Z,40832.00
2022-08-30T11:59:47.262Z,47648.00
2022-08-30T12:00:51.399Z,43776.00
2022-08-30T12:01:51.535Z,50432.00
2022-08-30T12:02:47.446Z,60032.00
2022-08-30T12:03:47.455Z,61184.00
2022-08-30T12:04:47.379Z,61024.00
2022-08-30T12:05:48.185Z,61024.00
2022-08-30T12:06:47.443Z,54272.00
2022-08-30T12:07:47.475Z,52224.00
2022-08-30T12:08:47.506Z,51168.00
2022-08-30T12:09:47.541Z,41728.00
2022-08-30T12:10:47.568Z,52832.00
2022-08-30T12:11:47.601Z,45344.00
2022-08-30T12:12:47.694Z,34304.00
2022-08-30T12:13:47.665Z,38944.00
2022-08-30T12:14:47.818Z,36928.00
2022-08-30T12:15:47.734Z,34496.00
2022-08-30T12:16:47.814Z,35680.00
2022-08-30T12:17:47.800Z,31392.00
2022-08-30T12:18:47.829Z,26976.00
2022-08-30T12:19:50.353Z,27968.00